sensor_id;sensor_type;location;lat;lon;timestamp;temperature;humidity
18291;DHT22;9271;48.590;8.866;2022-09-27T00:00:32;11.10;99.90
18291;DHT22;9271;48.590;8.866;2022-09-27T00:02:59;11.00;99.90
18291;DHT22;9271;48.590;8.866;2022-09-27T00:05:26;10.80;99.90
18291;DHT22;9271;48.590;8.866;2022-09-27T00:07:52;10.80;99.90
18291;DHT22;9271;48.590;8.866;2022-09-27T00:10:19;10.70;99.90
18291;DHT22;9271;48.590;8.866;2022-09-27T00:12:46;10.80;99.90
18291;DHT22;9271;48.590;8.866;2022-09-27T00:15:14;10.70;99.90
18291;DHT22;9271;48.590;8.866;2022-09-27T00:17:41;10.80;99.90
18291;DHT22;9271;48.590;8.866;2022-09-27T00:20:08;11.00;99.90
18291;DHT22;9271;48.590;8.866;2022-09-27T00:22:35;11.20;99.90
18291;DHT22;9271;48.590;8.866;2022-09-27T00:25:03;11.10;99.90
18291;DHT22;9271;48.590;8.866;2022-09-27T00:27:32;11.10;99.90
18291;DHT22;9271;48.590;8.866;2022-09-27T00:29:58;10.90;99.90
18291;DHT22;9271;48.590;8.866;2022-09-27T00:32:26;11.00;99.90
18291;DHT22;9271;48.590;8.866;2022-09-27T00:34:53;10.80;99.90
18291;DHT22;9271;48.590;8.866;2022-09-27T00:37:20;10.90;99.90
18291;DHT22;9271;48.590;8.866;2022-09-27T00:39:47;11.30;99.90
18291;DHT22;9271;48.590;8.866;2022-09-27T00:42:14;11.20;99.90
18291;DHT22;9271;48.590;8.866;2022-09-27T00:44:58;11.40;99.90
18291;DHT22;9271;48.590;8.866;2022-09-27T00:47:31;11.60;99.90
18291;DHT22;9271;48.590;8.866;2022-09-27T00:50:02;11.70;99.90
18291;DHT22;9271;48.590;8.866;2022-09-27T00:52:35;11.60;99.90
18291;DHT22;9271;48.590;8.866;2022-09-27T00:55:07;11.60;99.90
18291;DHT22;9271;48.590;8.866;2022-09-27T00:57:35;11.50;99.90
18291;DHT22;9271;48.590;8.866;2022-09-27T01:00:07;11.40;99.90
18291;DHT22;9271;48.590;8.866;2022-09-27T01:02:37;11.50;99.90
18291;DHT22;9271;48.590;8.866;2022-09-27T01:05:07;11.20;99.90
18291;DHT22;9271;48.590;8.866;2022-09-27T01:07:35;11.30;99.90
18291;DHT22;9271;48.590;8.866;2022-09-27T01:10:02;11.50;99.90
18291;DHT22;9271;48.590;8.866;2022-09-27T01:12:36;11.60;99.90
18291;DHT22;9271;48.590;8.866;2022-09-27T01:15:12;11.70;99.90
18291;DHT22;9271;48.590;8.866;2022-09-27T01:17:50;11.40;99.90
18291;DHT22;9271;48.590;8.866;2022-09-27T01:20:45;11.40;99.90
18291;DHT22;9271;48.590;8.866;2022-09-27T01:23:50;11.40;99.90
18291;DHT22;9271;48.590;8.866;2022-09-27T01:26:36;11.40;99.90
18291;DHT22;9271;48.590;8.866;2022-09-27T01:29:12;11.70;99.90
18291;DHT22;9271;48.590;8.866;2022-09-27T01:31:48;11.50;99.90
18291;DHT22;9271;48.590;8.866;2022-09-27T01:34:22;11.50;99.90
18291;DHT22;9271;48.590;8.866;2022-09-27T01:36:55;11.50;99.90
18291;DHT22;9271;48.590;8.866;2022-09-27T01:39:32;11.60;99.90
18291;DHT22;9271;48.590;8.866;2022-09-27T01:42:07;11.50;99.90
18291;DHT22;9271;48.590;8.866;2022-09-27T01:44:39;11.80;99.90
18291;DHT22;9271;48.590;8.866;2022-09-27T01:47:15;12.10;99.90
18291;DHT22;9271;48.590;8.866;2022-09-27T01:49:47;12.30;99.90
18291;DHT22;9271;48.590;8.866;2022-09-27T01:52:21;12.40;99.90
18291;DHT22;9271;48.590;8.866;2022-09-27T01:54:51;12.30;99.90
18291;DHT22;9271;48.590;8.866;2022-09-27T01:57:22;12.00;99.90
18291;DHT22;9271;48.590;8.866;2022-09-27T01:59:53;11.80;99.90
18291;DHT22;9271;48.590;8.866;2022-09-27T02:02:25;12.00;99.90
18291;DHT22;9271;48.590;8.866;2022-09-27T02:04:55;12.20;99.90
18291;DHT22;9271;48.590;8.866;2022-09-27T02:07:26;12.00;99.90
18291;DHT22;9271;48.590;8.866;2022-09-27T02:09:58;11.70;99.90
18291;DHT22;9271;48.590;8.866;2022-09-27T02:12:29;11.50;99.90
18291;DHT22;9271;48.590;8.866;2022-09-27T02:14:59;11.40;99.90
18291;DHT22;9271;48.590;8.866;2022-09-27T02:17:36;11.50;99.90
18291;DHT22;9271;48.590;8.866;2022-09-27T02:20:10;11.80;99.90
18291;DHT22;9271;48.590;8.866;2022-09-27T02:22:43;11.70;99.90
18291;DHT22;9271;48.590;8.866;2022-09-27T02:25:13;11.60;99.90
18291;DHT22;9271;48.590;8.866;2022-09-27T02:27:50;11.70;99.90
18291;DHT22;9271;48.590;8.866;2022-09-27T02:30:18;12.10;99.90
18291;DHT22;9271;48.590;8.866;2022-09-27T02:32:46;12.20;99.90
18291;DHT22;9271;48.590;8.866;2022-09-27T02:35:16;12.30;99.90
18291;DHT22;9271;48.590;8.866;2022-09-27T02:37:44;11.80;99.90
18291;DHT22;9271;48.590;8.866;2022-09-27T02:40:11;11.70;99.90
18291;DHT22;9271;48.590;8.866;2022-09-27T02:42:39;11.70;99.90
18291;DHT22;9271;48.590;8.866;2022-09-27T02:45:09;11.60;99.90
18291;DHT22;9271;48.590;8.866;2022-09-27T02:47:53;11.70;99.90
18291;DHT22;9271;48.590;8.866;2022-09-27T02:50:40;11.70;99.90
18291;DHT22;9271;48.590;8.866;2022-09-27T02:53:17;11.50;99.90
18291;DHT22;9271;48.590;8.866;2022-09-27T02:55:52;11.90;99.90
18291;DHT22;9271;48.590;8.866;2022-09-27T02:58:27;12.00;99.90
18291;DHT22;9271;48.590;8.866;2022-09-27T03:01:01;11.90;99.90
18291;DHT22;9271;48.590;8.866;2022-09-27T03:03:35;11.90;99.90
18291;DHT22;9271;48.590;8.866;2022-09-27T03:06:07;12.10;99.90
18291;DHT22;9271;48.590;8.866;2022-09-27T03:08:36;12.30;99.90
18291;DHT22;9271;48.590;8.866;2022-09-27T03:11:03;12.20;99.90
18291;DHT22;9271;48.590;8.866;2022-09-27T03:13:30;11.90;99.90
18291;DHT22;9271;48.590;8.866;2022-09-27T03:15:59;11.60;99.90
18291;DHT22;9271;48.590;8.866;2022-09-27T03:18:25;11.60;99.90
18291;DHT22;9271;48.590;8.866;2022-09-27T03:20:53;11.70;99.90
18291;DHT22;9271;48.590;8.866;2022-09-27T03:23:20;11.50;99.90
18291;DHT22;9271;48.590;8.866;2022-09-27T03:25:47;11.20;99.90
18291;DHT22;9271;48.590;8.866;2022-09-27T03:28:14;11.00;99.90
18291;DHT22;9271;48.590;8.866;2022-09-27T03:30:41;11.10;99.90
18291;DHT22;9271;48.590;8.866;2022-09-27T03:33:09;11.20;99.90
18291;DHT22;9271;48.590;8.866;2022-09-27T03:35:36;10.90;99.90
18291;DHT22;9271;48.590;8.866;2022-09-27T03:38:04;10.80;99.90
18291;DHT22;9271;48.590;8.866;2022-09-27T03:40:32;10.80;99.90
18291;DHT22;9271;48.590;8.866;2022-09-27T03:42:58;10.70;99.90
18291;DHT22;9271;48.590;8.866;2022-09-27T03:45:26;10.70;99.90
18291;DHT22;9271;48.590;8.866;2022-09-27T03:47:52;10.50;99.90
18291;DHT22;9271;48.590;8.866;2022-09-27T03:50:19;10.40;99.90
18291;DHT22;9271;48.590;8.866;2022-09-27T03:52:46;10.50;99.90
18291;DHT22;9271;48.590;8.866;2022-09-27T03:55:14;10.50;99.90
18291;DHT22;9271;48.590;8.866;2022-09-27T03:57:43;10.80;99.90
18291;DHT22;9271;48.590;8.866;2022-09-27T04:00:11;10.60;99.90
18291;DHT22;9271;48.590;8.866;2022-09-27T04:02:39;10.70;99.90
18291;DHT22;9271;48.590;8.866;2022-09-27T04:05:06;10.90;99.90
18291;DHT22;9271;48.590;8.866;2022-09-27T04:07:32;10.70;99.90
18291;DHT22;9271;48.590;8.866;2022-09-27T04:09:59;10.40;99.90
18291;DHT22;9271;48.590;8.866;2022-09-27T04:12:27;10.20;99.90
18291;DHT22;9271;48.590;8.866;2022-09-27T04:14:54;10.30;99.90
18291;DHT22;9271;48.590;8.866;2022-09-27T04:17:21;10.50;99.90
18291;DHT22;9271;48.590;8.866;2022-09-27T04:19:49;10.50;99.90
18291;DHT22;9271;48.590;8.866;2022-09-27T04:22:16;10.60;99.90
18291;DHT22;9271;48.590;8.866;2022-09-27T04:24:42;10.40;99.90
18291;DHT22;9271;48.590;8.866;2022-09-27T04:27:09;10.30;99.90
18291;DHT22;9271;48.590;8.866;2022-09-27T04:29:37;10.20;99.90
18291;DHT22;9271;48.590;8.866;2022-09-27T04:32:07;10.10;99.90
18291;DHT22;9271;48.590;8.866;2022-09-27T04:34:34;10.20;99.90
18291;DHT22;9271;48.590;8.866;2022-09-27T04:37:18;10.10;99.90
18291;DHT22;9271;48.590;8.866;2022-09-27T04:39:45;10.20;99.90
18291;DHT22;9271;48.590;8.866;2022-09-27T04:42:13;10.10;99.90
18291;DHT22;9271;48.590;8.866;2022-09-27T04:44:41;10.10;99.90
18291;DHT22;9271;48.590;8.866;2022-09-27T04:47:08;10.30;99.90
18291;DHT22;9271;48.590;8.866;2022-09-27T04:49:35;10.30;99.90
18291;DHT22;9271;48.590;8.866;2022-09-27T04:52:03;10.00;99.90
18291;DHT22;9271;48.590;8.866;2022-09-27T04:54:30;10.10;99.90
18291;DHT22;9271;48.590;8.866;2022-09-27T04:56:57;10.10;99.90
18291;DHT22;9271;48.590;8.866;2022-09-27T04:59:23;10.00;99.90
18291;DHT22;9271;48.590;8.866;2022-09-27T05:01:53;10.30;99.90
18291;DHT22;9271;48.590;8.866;2022-09-27T05:04:19;10.40;99.90
18291;DHT22;9271;48.590;8.866;2022-09-27T05:06:47;10.70;99.90
18291;DHT22;9271;48.590;8.866;2022-09-27T05:09:14;10.20;99.90
18291;DHT22;9271;48.590;8.866;2022-09-27T05:11:41;10.00;99.90
18291;DHT22;9271;48.590;8.866;2022-09-27T05:14:07;10.00;99.90
18291;DHT22;9271;48.590;8.866;2022-09-27T05:16:34;10.10;99.90
18291;DHT22;9271;48.590;8.866;2022-09-27T05:19:02;9.90;99.90
18291;DHT22;9271;48.590;8.866;2022-09-27T05:21:30;10.10;99.90
18291;DHT22;9271;48.590;8.866;2022-09-27T05:23:57;10.30;99.90
18291;DHT22;9271;48.590;8.866;2022-09-27T05:26:25;10.40;99.90
18291;DHT22;9271;48.590;8.866;2022-09-27T05:28:52;10.10;99.90
18291;DHT22;9271;48.590;8.866;2022-09-27T05:31:19;10.20;99.90
18291;DHT22;9271;48.590;8.866;2022-09-27T05:33:45;10.20;99.90
18291;DHT22;9271;48.590;8.866;2022-09-27T05:36:14;10.20;99.90
18291;DHT22;9271;48.590;8.866;2022-09-27T05:38:40;10.00;99.90
18291;DHT22;9271;48.590;8.866;2022-09-27T05:41:08;9.90;99.90
18291;DHT22;9271;48.590;8.866;2022-09-27T05:43:34;9.90;99.90
18291;DHT22;9271;48.590;8.866;2022-09-27T05:46:02;10.30;99.90
18291;DHT22;9271;48.590;8.866;2022-09-27T05:48:30;10.60;99.90
18291;DHT22;9271;48.590;8.866;2022-09-27T05:50:57;10.60;99.90
18291;DHT22;9271;48.590;8.866;2022-09-27T05:53:25;10.80;99.90
18291;DHT22;9271;48.590;8.866;2022-09-27T05:55:51;10.70;99.90
18291;DHT22;9271;48.590;8.866;2022-09-27T05:58:18;10.50;99.90
18291;DHT22;9271;48.590;8.866;2022-09-27T06:00:45;10.60;99.90
18291;DHT22;9271;48.590;8.866;2022-09-27T06:03:12;10.50;99.90
18291;DHT22;9271;48.590;8.866;2022-09-27T06:05:39;10.50;99.90
18291;DHT22;9271;48.590;8.866;2022-09-27T06:08:08;11.00;99.90
18291;DHT22;9271;48.590;8.866;2022-09-27T06:10:37;11.10;99.90
18291;DHT22;9271;48.590;8.866;2022-09-27T06:13:06;11.10;99.90
18291;DHT22;9271;48.590;8.866;2022-09-27T06:15:33;11.10;99.90
18291;DHT22;9271;48.590;8.866;2022-09-27T06:18:03;11.30;99.90
18291;DHT22;9271;48.590;8.866;2022-09-27T06:20:31;11.10;99.90
18291;DHT22;9271;48.590;8.866;2022-09-27T06:23:03;11.00;99.90
18291;DHT22;9271;48.590;8.866;2022-09-27T06:25:30;11.00;99.90
18291;DHT22;9271;48.590;8.866;2022-09-27T06:27:58;11.20;99.90
18291;DHT22;9271;48.590;8.866;2022-09-27T06:30:25;11.20;99.90
18291;DHT22;9271;48.590;8.866;2022-09-27T06:32:55;11.60;99.90
18291;DHT22;9271;48.590;8.866;2022-09-27T06:35:22;11.60;99.90
18291;DHT22;9271;48.590;8.866;2022-09-27T06:37:49;11.60;99.90
18291;DHT22;9271;48.590;8.866;2022-09-27T06:40:16;11.70;99.90
18291;DHT22;9271;48.590;8.866;2022-09-27T06:42:43;11.60;99.90
18291;DHT22;9271;48.590;8.866;2022-09-27T06:45:11;11.80;99.90
18291;DHT22;9271;48.590;8.866;2022-09-27T06:47:38;12.20;99.90
18291;DHT22;9271;48.590;8.866;2022-09-27T06:50:05;12.90;99.90
18291;DHT22;9271;48.590;8.866;2022-09-27T06:52:33;13.50;97.80
18291;DHT22;9271;48.590;8.866;2022-09-27T06:55:00;13.30;99.30
18291;DHT22;9271;48.590;8.866;2022-09-27T06:57:27;12.70;99.20
18291;DHT22;9271;48.590;8.866;2022-09-27T07:00:13;12.00;99.90
18291;DHT22;9271;48.590;8.866;2022-09-27T07:02:49;11.80;99.90
18291;DHT22;9271;48.590;8.866;2022-09-27T07:05:15;12.10;99.90
18291;DHT22;9271;48.590;8.866;2022-09-27T07:07:42;12.40;99.90
18291;DHT22;9271;48.590;8.866;2022-09-27T07:10:10;12.70;99.20
18291;DHT22;9271;48.590;8.866;2022-09-27T07:12:37;13.20;98.30
18291;DHT22;9271;48.590;8.866;2022-09-27T07:15:05;13.80;98.30
18291;DHT22;9271;48.590;8.866;2022-09-27T07:17:33;13.70;98.00
18291;DHT22;9271;48.590;8.866;2022-09-27T07:20:00;12.80;98.60
18291;DHT22;9271;48.590;8.866;2022-09-27T07:22:27;12.70;99.40
18291;DHT22;9271;48.590;8.866;2022-09-27T07:24:55;14.00;97.70
18291;DHT22;9271;48.590;8.866;2022-09-27T07:27:22;13.90;96.00
18291;DHT22;9271;48.590;8.866;2022-09-27T07:29:51;13.20;96.80
18291;DHT22;9271;48.590;8.866;2022-09-27T07:32:17;12.10;98.40
18291;DHT22;9271;48.590;8.866;2022-09-27T07:34:45;11.90;99.10
18291;DHT22;9271;48.590;8.866;2022-09-27T07:37:12;12.60;99.50
18291;DHT22;9271;48.590;8.866;2022-09-27T07:39:39;13.90;97.60
18291;DHT22;9271;48.590;8.866;2022-09-27T07:42:05;14.50;96.70
18291;DHT22;9271;48.590;8.866;2022-09-27T07:44:32;14.20;95.70
18291;DHT22;9271;48.590;8.866;2022-09-27T07:46:59;13.60;96.80
18291;DHT22;9271;48.590;8.866;2022-09-27T07:49:25;13.90;97.30
18291;DHT22;9271;48.590;8.866;2022-09-27T07:51:53;14.70;96.10
18291;DHT22;9271;48.590;8.866;2022-09-27T07:54:20;15.30;94.80
18291;DHT22;9271;48.590;8.866;2022-09-27T07:56:48;15.80;93.30
18291;DHT22;9271;48.590;8.866;2022-09-27T07:59:14;15.60;93.40
18291;DHT22;9271;48.590;8.866;2022-09-27T08:01:41;15.50;94.60
18291;DHT22;9271;48.590;8.866;2022-09-27T08:04:08;17.20;92.80
18291;DHT22;9271;48.590;8.866;2022-09-27T08:06:34;19.40;88.70
18291;DHT22;9271;48.590;8.866;2022-09-27T08:09:05;21.60;80.20
18291;DHT22;9271;48.590;8.866;2022-09-27T08:11:34;22.40;74.30
18291;DHT22;9271;48.590;8.866;2022-09-27T08:14:02;23.70;67.90
18291;DHT22;9271;48.590;8.866;2022-09-27T08:16:30;23.60;66.20
18291;DHT22;9271;48.590;8.866;2022-09-27T08:18:58;23.70;62.10
18291;DHT22;9271;48.590;8.866;2022-09-27T08:21:25;21.90;65.20
18291;DHT22;9271;48.590;8.866;2022-09-27T08:23:52;19.80;71.10
18291;DHT22;9271;48.590;8.866;2022-09-27T08:26:20;17.10;80.80
18291;DHT22;9271;48.590;8.866;2022-09-27T08:28:47;15.00;88.80
18291;DHT22;9271;48.590;8.866;2022-09-27T08:31:14;13.70;92.90
18291;DHT22;9271;48.590;8.866;2022-09-27T08:33:41;12.70;95.40
18291;DHT22;9271;48.590;8.866;2022-09-27T08:36:10;12.30;96.20
18291;DHT22;9271;48.590;8.866;2022-09-27T08:38:37;12.20;98.20
18291;DHT22;9271;48.590;8.866;2022-09-27T08:41:07;12.10;96.50
18291;DHT22;9271;48.590;8.866;2022-09-27T08:43:44;11.70;99.10
18291;DHT22;9271;48.590;8.866;2022-09-27T08:46:23;11.40;99.90
18291;DHT22;9271;48.590;8.866;2022-09-27T08:48:57;11.40;99.90
18291;DHT22;9271;48.590;8.866;2022-09-27T08:51:28;11.50;99.90
18291;DHT22;9271;48.590;8.866;2022-09-27T08:54:00;11.50;99.90
18291;DHT22;9271;48.590;8.866;2022-09-27T08:56:28;11.80;99.90
18291;DHT22;9271;48.590;8.866;2022-09-27T08:59:03;13.70;99.00
18291;DHT22;9271;48.590;8.866;2022-09-27T09:01:30;17.00;94.10
18291;DHT22;9271;48.590;8.866;2022-09-27T09:03:59;19.90;85.20
18291;DHT22;9271;48.590;8.866;2022-09-27T09:06:33;20.80;82.00
18291;DHT22;9271;48.590;8.866;2022-09-27T09:09:13;20.70;71.70
18291;DHT22;9271;48.590;8.866;2022-09-27T09:11:56;20.90;80.90
18291;DHT22;9271;48.590;8.866;2022-09-27T09:15:02;21.70;76.70
18291;DHT22;9271;48.590;8.866;2022-09-27T09:17:44;22.50;71.20
18291;DHT22;9271;48.590;8.866;2022-09-27T09:20:24;23.10;67.90
18291;DHT22;9271;48.590;8.866;2022-09-27T09:23:21;24.60;62.40
18291;DHT22;9271;48.590;8.866;2022-09-27T09:25:56;24.00;58.80
18291;DHT22;9271;48.590;8.866;2022-09-27T09:28:33;19.20;67.90
18291;DHT22;9271;48.590;8.866;2022-09-27T09:31:09;17.40;77.30
18291;DHT22;9271;48.590;8.866;2022-09-27T09:33:42;16.80;80.60
18291;DHT22;9271;48.590;8.866;2022-09-27T09:36:19;18.00;76.10
18291;DHT22;9271;48.590;8.866;2022-09-27T09:38:51;19.40;76.40
18291;DHT22;9271;48.590;8.866;2022-09-27T09:41:23;19.90;71.70
18291;DHT22;9271;48.590;8.866;2022-09-27T09:43:56;17.80;76.10
18291;DHT22;9271;48.590;8.866;2022-09-27T09:46:32;16.80;79.90
18291;DHT22;9271;48.590;8.866;2022-09-27T09:49:07;15.00;90.00
18291;DHT22;9271;48.590;8.866;2022-09-27T09:51:42;13.80;92.50
18291;DHT22;9271;48.590;8.866;2022-09-27T09:54:14;13.80;95.10
18291;DHT22;9271;48.590;8.866;2022-09-27T09:56:48;13.50;93.50
18291;DHT22;9271;48.590;8.866;2022-09-27T09:59:22;13.00;95.00
18291;DHT22;9271;48.590;8.866;2022-09-27T10:01:53;12.80;95.50
18291;DHT22;9271;48.590;8.866;2022-09-27T10:04:24;12.50;95.30
18291;DHT22;9271;48.590;8.866;2022-09-27T10:06:52;12.50;96.90
18291;DHT22;9271;48.590;8.866;2022-09-27T10:09:23;12.60;97.40
18291;DHT22;9271;48.590;8.866;2022-09-27T10:11:50;13.40;96.20
18291;DHT22;9271;48.590;8.866;2022-09-27T10:14:18;13.50;95.50
18291;DHT22;9271;48.590;8.866;2022-09-27T10:16:47;13.90;95.40
18291;DHT22;9271;48.590;8.866;2022-09-27T10:19:21;14.10;94.50
18291;DHT22;9271;48.590;8.866;2022-09-27T10:21:51;13.60;94.00
18291;DHT22;9271;48.590;8.866;2022-09-27T10:24:18;14.10;94.10
18291;DHT22;9271;48.590;8.866;2022-09-27T10:26:47;13.90;93.40
18291;DHT22;9271;48.590;8.866;2022-09-27T10:29:29;13.50;94.00
18291;DHT22;9271;48.590;8.866;2022-09-27T10:31:58;13.70;94.70
18291;DHT22;9271;48.590;8.866;2022-09-27T10:34:30;13.40;93.90
18291;DHT22;9271;48.590;8.866;2022-09-27T10:37:06;12.70;94.30
18291;DHT22;9271;48.590;8.866;2022-09-27T10:39:33;12.70;94.50
18291;DHT22;9271;48.590;8.866;2022-09-27T10:42:00;13.70;93.50
18291;DHT22;9271;48.590;8.866;2022-09-27T10:44:28;16.80;90.70
18291;DHT22;9271;48.590;8.866;2022-09-27T10:46:59;19.70;80.80
18291;DHT22;9271;48.590;8.866;2022-09-27T10:49:29;22.10;73.60
18291;DHT22;9271;48.590;8.866;2022-09-27T10:51:58;22.80;68.30
18291;DHT22;9271;48.590;8.866;2022-09-27T10:54:28;21.90;66.40
18291;DHT22;9271;48.590;8.866;2022-09-27T10:57:00;21.60;66.30
18291;DHT22;9271;48.590;8.866;2022-09-27T10:59:32;20.40;66.40
18291;DHT22;9271;48.590;8.866;2022-09-27T11:01:59;20.50;68.80
18291;DHT22;9271;48.590;8.866;2022-09-27T11:04:31;20.30;65.90
18291;DHT22;9271;48.590;8.866;2022-09-27T11:07:15;17.50;73.60
18291;DHT22;9271;48.590;8.866;2022-09-27T11:09:48;15.40;83.00
18291;DHT22;9271;48.590;8.866;2022-09-27T11:12:16;14.20;89.50
18291;DHT22;9271;48.590;8.866;2022-09-27T11:14:52;14.30;91.20
18291;DHT22;9271;48.590;8.866;2022-09-27T11:17:26;13.60;92.20
18291;DHT22;9271;48.590;8.866;2022-09-27T11:23:12;13.40;94.20
18291;DHT22;9271;48.590;8.866;2022-09-27T11:25:50;13.20;93.40
18291;DHT22;9271;48.590;8.866;2022-09-27T11:28:29;13.40;93.50
18291;DHT22;9271;48.590;8.866;2022-09-27T11:31:03;14.50;93.80
18291;DHT22;9271;48.590;8.866;2022-09-27T11:33:44;15.30;92.00
18291;DHT22;9271;48.590;8.866;2022-09-27T11:36:24;15.40;90.40
18291;DHT22;9271;48.590;8.866;2022-09-27T11:39:00;15.50;91.70
18291;DHT22;9271;48.590;8.866;2022-09-27T11:41:40;14.80;91.20
18291;DHT22;9271;48.590;8.866;2022-09-27T11:44:30;14.30;92.90
18291;DHT22;9271;48.590;8.866;2022-09-27T11:47:10;14.20;93.20
18291;DHT22;9271;48.590;8.866;2022-09-27T11:52:53;13.60;96.10
18291;DHT22;9271;48.590;8.866;2022-09-27T11:55:34;13.70;97.50
18291;DHT22;9271;48.590;8.866;2022-09-27T11:58:11;14.20;97.20
18291;DHT22;9271;48.590;8.866;2022-09-27T12:00:49;14.10;96.60
18291;DHT22;9271;48.590;8.866;2022-09-27T12:03:38;13.00;97.20
18291;DHT22;9271;48.590;8.866;2022-09-27T12:06:13;12.30;99.60
18291;DHT22;9271;48.590;8.866;2022-09-27T12:09:00;12.20;99.90
18291;DHT22;9271;48.590;8.866;2022-09-27T12:11:33;12.20;99.90
18291;DHT22;9271;48.590;8.866;2022-09-27T12:14:04;12.40;99.90
18291;DHT22;9271;48.590;8.866;2022-09-27T12:16:33;12.20;99.10
18291;DHT22;9271;48.590;8.866;2022-09-27T12:19:03;12.00;99.70
18291;DHT22;9271;48.590;8.866;2022-09-27T12:21:35;11.90;99.90
18291;DHT22;9271;48.590;8.866;2022-09-27T12:24:03;11.50;99.90
18291;DHT22;9271;48.590;8.866;2022-09-27T12:26:34;11.40;99.90
18291;DHT22;9271;48.590;8.866;2022-09-27T12:29:09;11.50;99.90
18291;DHT22;9271;48.590;8.866;2022-09-27T12:31:43;11.40;99.90
18291;DHT22;9271;48.590;8.866;2022-09-27T12:34:15;11.10;99.90
18291;DHT22;9271;48.590;8.866;2022-09-27T12:36:46;11.20;99.90
18291;DHT22;9271;48.590;8.866;2022-09-27T12:39:18;11.60;99.90
18291;DHT22;9271;48.590;8.866;2022-09-27T12:41:51;11.90;99.90
18291;DHT22;9271;48.590;8.866;2022-09-27T12:44:26;13.40;99.90
18291;DHT22;9271;48.590;8.866;2022-09-27T12:46:58;15.50;98.20
18291;DHT22;9271;48.590;8.866;2022-09-27T12:49:37;15.60;95.30
18291;DHT22;9271;48.590;8.866;2022-09-27T12:52:11;14.30;95.80
18291;DHT22;9271;48.590;8.866;2022-09-27T12:55:00;13.10;98.10
18291;DHT22;9271;48.590;8.866;2022-09-27T12:57:41;13.40;99.50
18291;DHT22;9271;48.590;8.866;2022-09-27T13:00:16;14.10;97.90
18291;DHT22;9271;48.590;8.866;2022-09-27T13:03:20;14.40;97.10
18291;DHT22;9271;48.590;8.866;2022-09-27T13:06:13;14.10;97.20
18291;DHT22;9271;48.590;8.866;2022-09-27T13:09:26;14.00;97.30
18291;DHT22;9271;48.590;8.866;2022-09-27T13:12:02;14.20;96.80
18291;DHT22;9271;48.590;8.866;2022-09-27T13:14:41;14.90;96.70
18291;DHT22;9271;48.590;8.866;2022-09-27T13:20:36;17.20;91.80
18291;DHT22;9271;48.590;8.866;2022-09-27T13:26:47;19.60;87.80
18291;DHT22;9271;48.590;8.866;2022-09-27T13:29:30;20.30;80.80
18291;DHT22;9271;48.590;8.866;2022-09-27T13:34:49;18.50;81.30
18291;DHT22;9271;48.590;8.866;2022-09-27T13:37:37;17.50;82.80
18291;DHT22;9271;48.590;8.866;2022-09-27T13:40:30;17.20;83.70
18291;DHT22;9271;48.590;8.866;2022-09-27T13:43:17;15.80;84.60
18291;DHT22;9271;48.590;8.866;2022-09-27T13:45:50;14.10;89.90
18291;DHT22;9271;48.590;8.866;2022-09-27T13:48:25;13.60;91.10
18291;DHT22;9271;48.590;8.866;2022-09-27T13:50:56;15.10;92.00
18291;DHT22;9271;48.590;8.866;2022-09-27T13:53:28;15.60;87.50
18291;DHT22;9271;48.590;8.866;2022-09-27T13:55:55;14.40;90.50
18291;DHT22;9271;48.590;8.866;2022-09-27T13:58:42;13.60;91.10
18291;DHT22;9271;48.590;8.866;2022-09-27T14:01:17;13.10;92.70
18291;DHT22;9271;48.590;8.866;2022-09-27T14:03:45;12.70;93.30
18291;DHT22;9271;48.590;8.866;2022-09-27T14:06:16;12.60;93.60
18291;DHT22;9271;48.590;8.866;2022-09-27T14:08:47;13.00;92.90
18291;DHT22;9271;48.590;8.866;2022-09-27T14:11:17;13.40;93.00
18291;DHT22;9271;48.590;8.866;2022-09-27T14:13:48;14.50;91.80
18291;DHT22;9271;48.590;8.866;2022-09-27T14:16:17;14.80;90.50
18291;DHT22;9271;48.590;8.866;2022-09-27T14:18:46;13.90;91.70
18291;DHT22;9271;48.590;8.866;2022-09-27T14:21:21;13.20;91.40
18291;DHT22;9271;48.590;8.866;2022-09-27T14:23:51;13.40;91.90
18291;DHT22;9271;48.590;8.866;2022-09-27T14:26:22;14.70;90.10
18291;DHT22;9271;48.590;8.866;2022-09-27T14:28:50;15.80;88.40
18291;DHT22;9271;48.590;8.866;2022-09-27T14:31:20;15.30;86.80
18291;DHT22;9271;48.590;8.866;2022-09-27T14:33:47;13.70;90.90
18291;DHT22;9271;48.590;8.866;2022-09-27T14:36:28;13.30;91.80
18291;DHT22;9271;48.590;8.866;2022-09-27T14:39:14;13.30;92.50
18291;DHT22;9271;48.590;8.866;2022-09-27T14:41:41;12.80;92.90
18291;DHT22;9271;48.590;8.866;2022-09-27T14:44:13;12.60;92.80
18291;DHT22;9271;48.590;8.866;2022-09-27T14:46:42;12.70;92.70
18291;DHT22;9271;48.590;8.866;2022-09-27T14:49:18;12.80;92.80
18291;DHT22;9271;48.590;8.866;2022-09-27T14:51:50;13.20;92.10
18291;DHT22;9271;48.590;8.866;2022-09-27T14:54:21;13.90;91.60
18291;DHT22;9271;48.590;8.866;2022-09-27T14:56:51;14.60;90.60
18291;DHT22;9271;48.590;8.866;2022-09-27T14:59:23;15.60;87.60
18291;DHT22;9271;48.590;8.866;2022-09-27T15:01:58;16.40;81.80
18291;DHT22;9271;48.590;8.866;2022-09-27T15:04:26;16.30;83.10
18291;DHT22;9271;48.590;8.866;2022-09-27T15:06:55;17.00;81.90
18291;DHT22;9271;48.590;8.866;2022-09-27T15:09:23;15.90;80.60
18291;DHT22;9271;48.590;8.866;2022-09-27T15:11:53;15.60;82.30
18291;DHT22;9271;48.590;8.866;2022-09-27T15:14:21;15.40;83.70
18291;DHT22;9271;48.590;8.866;2022-09-27T15:16:51;16.20;82.90
18291;DHT22;9271;48.590;8.866;2022-09-27T15:19:22;16.10;83.10
18291;DHT22;9271;48.590;8.866;2022-09-27T15:21:50;15.00;83.40
18291;DHT22;9271;48.590;8.866;2022-09-27T15:24:36;14.00;85.50
18291;DHT22;9271;48.590;8.866;2022-09-27T15:27:11;13.00;89.60
18291;DHT22;9271;48.590;8.866;2022-09-27T15:29:38;12.50;90.70
18291;DHT22;9271;48.590;8.866;2022-09-27T15:32:06;12.20;90.80
18291;DHT22;9271;48.590;8.866;2022-09-27T15:34:35;12.20;91.30
18291;DHT22;9271;48.590;8.866;2022-09-27T15:37:03;12.20;91.10
18291;DHT22;9271;48.590;8.866;2022-09-27T15:39:32;12.40;90.90
18291;DHT22;9271;48.590;8.866;2022-09-27T15:42:02;12.30;91.50
18291;DHT22;9271;48.590;8.866;2022-09-27T15:44:44;12.40;91.80
18291;DHT22;9271;48.590;8.866;2022-09-27T15:47:39;13.00;90.90
18291;DHT22;9271;48.590;8.866;2022-09-27T15:53:42;13.20;90.30
18291;DHT22;9271;48.590;8.866;2022-09-27T15:56:12;12.90;90.90
18291;DHT22;9271;48.590;8.866;2022-09-27T15:58:40;12.80;91.10
18291;DHT22;9271;48.590;8.866;2022-09-27T16:01:16;12.60;91.40
18291;DHT22;9271;48.590;8.866;2022-09-27T16:03:43;12.40;92.00
18291;DHT22;9271;48.590;8.866;2022-09-27T16:06:10;12.00;92.90
18291;DHT22;9271;48.590;8.866;2022-09-27T16:08:38;12.00;93.00
18291;DHT22;9271;48.590;8.866;2022-09-27T16:11:12;11.80;93.70
18291;DHT22;9271;48.590;8.866;2022-09-27T16:13:39;11.40;96.90
18291;DHT22;9271;48.590;8.866;2022-09-27T16:16:15;11.00;97.40
18291;DHT22;9271;48.590;8.866;2022-09-27T16:18:43;10.60;98.70
18291;DHT22;9271;48.590;8.866;2022-09-27T16:21:10;10.50;98.60
18291;DHT22;9271;48.590;8.866;2022-09-27T16:23:37;10.20;99.20
18291;DHT22;9271;48.590;8.866;2022-09-27T16:26:04;10.30;99.90
18291;DHT22;9271;48.590;8.866;2022-09-27T16:28:33;10.60;99.30
18291;DHT22;9271;48.590;8.866;2022-09-27T16:31:02;10.80;99.00
18291;DHT22;9271;48.590;8.866;2022-09-27T16:33:29;10.70;98.70